Radiosonde details



Informationen :

Serial : X5211244
Type : Vaisala RS41-NG
Date of production : 22.12.2025
Frequency : 404.800MHz
Launchsite : Boise Air Terminal
Nearest town : Idaho City, US (48.4km)

Altitude (Max) : 18570m at 2026-09-04 00:05:13
Speed (Max) : 159km/h at altitude 11302m

Average speed : 92km/h
Average ascent rate : 5m/s
Average descent rate : 0m/s
Ascent rate (Max) : 8.9m/s
Descent rate (Max): 2.7m/s

First frame :
KE7DJD at 2026-09-03 23:05:02 at altitude 1237m (OG: 1195m)
Last frame :
KE7DJD at 2026-09-04 00:05:13 at altitude 18570m (OG: 18528m)

Flighttime : 1h0m11s
Ascent time : 1h0m11s
Descent time : 0s
Uptime : -
Killtimer : -

Distance (Straight line distance): 90km

Distance (Route):


Frames : 167


Measurement :

Temperature : -55.2°C
Humidity : 1.5%
Pressure : 0hPa


Vertical profile (SkewT) :


Elevation profile :



Receiving stations :


Receiver Frames First received Last received
KE7DJD 167 2026-09-03 23:05:02 2026-09-04 00:05:13

Share per receiver :



All frames :


Receiver Date Latitude Longitude Direction Speed Altitude Climb Temperature Humidity Pressure Voltage Killtimer Uptime BKT XDATA
KE7DJD2026-09-04 00:05:1344.18179-115.4807634°40km/h18570m3.6m/s-55.2°C1.5%0hPa0V00:00:0000:00:0000:00:00
KE7DJD2026-09-04 00:04:5144.18011-115.4815820°27km/h18472m4.4m/s-55.7°C1.6%0hPa0V00:00:0000:00:0000:00:00
KE7DJD2026-09-04 00:04:3144.17839-115.4821924°37km/h18376m4.5m/s-55.3°C1.6%0hPa0V00:00:0000:00:0000:00:00
KE7DJD2026-09-04 00:04:1144.17635-115.48236349°40km/h18263m5.7m/s-54.6°C1.5%0hPa0V00:00:0000:00:0000:00:00
KE7DJD2026-09-04 00:03:5044.17425-115.4822711°42km/h18152m4.0m/s-53.8°C1.5%0hPa0V00:00:0000:00:0000:00:00
KE7DJD2026-09-04 00:03:2944.17206-115.48218357°44km/h18044m4.9m/s-53.5°C1.4%0hPa0V00:00:0000:00:0000:00:00
KE7DJD2026-09-04 00:03:0844.17008-115.4824014°33km/h17930m5.6m/s-53.3°C1.4%0hPa0V00:00:0000:00:0000:00:00
KE7DJD2026-09-04 00:02:2644.16659-115.4852849°16km/h17600m3.6m/s-54.2°C1.5%0hPa0V00:00:0000:00:0000:00:00
KE7DJD2026-09-04 00:01:2844.16453-115.4889747°29km/h17385m6.0m/s-53.2°C1.4%0hPa0V00:00:0000:00:0000:00:00
KE7DJD2026-09-04 00:00:4544.16179-115.4922027°37km/h17177m4.4m/s-52.4°C1.3%0hPa0V00:00:0000:00:0000:00:00
KE7DJD2026-09-04 00:00:2644.15992-115.4933515°44km/h17074m4.9m/s-52.8°C1.4%0hPa0V00:00:0000:00:0000:00:00
KE7DJD2026-09-03 23:59:4244.15511-115.4968644°60km/h16861m5.3m/s-54.0°C1.5%0hPa0V00:00:0000:00:0000:00:00
KE7DJD2026-09-03 23:59:2244.15319-115.4994951°44km/h16762m6.0m/s-53.5°C1.5%0hPa0V00:00:0000:00:0000:00:00
KE7DJD2026-09-03 23:59:0244.15166-115.5020951°47km/h16667m4.3m/s-53.3°C1.5%0hPa0V00:00:0000:00:0000:00:00
KE7DJD2026-09-03 23:58:4244.15006-115.5049041°60km/h16573m4.8m/s-54.0°C1.6%0hPa0V00:00:0000:00:0000:00:00
KE7DJD2026-09-03 23:58:2144.14803-115.5084248°64km/h16476m5.7m/s-53.9°C1.5%0hPa0V00:00:0000:00:0000:00:00
KE7DJD2026-09-03 23:58:0144.14608-115.5121461°62km/h16384m6.1m/s-54.2°C1.6%0hPa0V00:00:0000:00:0000:00:00
KE7DJD2026-09-03 23:57:1944.14221-115.5202160°57km/h16187m4.5m/s-54.9°C1.8%0hPa0V00:00:0000:00:0000:00:00
KE7DJD2026-09-03 23:56:5844.14054-115.5238760°57km/h16093m5.4m/s-55.2°C1.8%0hPa0V00:00:0000:00:0000:00:00
KE7DJD2026-09-03 23:56:3844.13910-115.5276858°64km/h16000m4.1m/s-55.3°C1.9%0hPa0V00:00:0000:00:0000:00:00
KE7DJD2026-09-03 23:56:1844.13733-115.5315250°60km/h15907m3.8m/s-55.7°C2.1%0hPa0V00:00:0000:00:0000:00:00
KE7DJD2026-09-03 23:55:5844.13530-115.5352554°71km/h15815m3.5m/s-56.0°C2.1%0hPa0V00:00:0000:00:0000:00:00
KE7DJD2026-09-03 23:55:3844.13336-115.5395758°71km/h15721m4.6m/s-56.5°C2.2%0hPa0V00:00:0000:00:0000:00:00
KE7DJD2026-09-03 23:55:1844.13129-115.5447367°89km/h15631m3.1m/s-56.9°C2.4%0hPa0V00:00:0000:00:0000:00:00
KE7DJD2026-09-03 23:54:5844.12872-115.5504660°97km/h15536m5.8m/s-56.7°C2.5%0hPa0V00:00:0000:00:0000:00:00
KE7DJD2026-09-03 23:54:3744.12551-115.5565353°100km/h15435m5.6m/s-57.5°C2.8%0hPa0V00:00:0000:00:0000:00:00
KE7DJD2026-09-03 23:54:1644.12169-115.5620648°97km/h15333m4.0m/s-57.8°C2.8%0hPa0V00:00:0000:00:0000:00:00
KE7DJD2026-09-03 23:53:5644.11764-115.5668038°100km/h15240m4.7m/s-58.1°C2.9%0hPa0V00:00:0000:00:0000:00:00
KE7DJD2026-09-03 23:53:3544.11354-115.5710333°97km/h15137m4.7m/s-57.8°C2.9%0hPa0V00:00:0000:00:0000:00:00
KE7DJD2026-09-03 23:52:5344.10555-115.5775025°82km/h14913m6.0m/s-57.1°C2.9%0hPa0V00:00:0000:00:0000:00:00
KE7DJD2026-09-03 23:52:3244.10216-115.5796533°62km/h14797m5.1m/s-56.0°C2.7%0hPa0V00:00:0000:00:0000:00:00
KE7DJD2026-09-03 23:52:1244.09917-115.5816522°68km/h14690m5.3m/s-55.0°C2.5%0hPa0V00:00:0000:00:0000:00:00
KE7DJD2026-09-03 23:51:5144.09624-115.5835823°60km/h14587m4.9m/s-54.1°C2.3%0hPa0V00:00:0000:00:0000:00:00
KE7DJD2026-09-03 23:51:3144.09367-115.5852624°62km/h14487m4.3m/s-53.2°C2.2%0hPa0V00:00:0000:00:0000:00:00
KE7DJD2026-09-03 23:51:1044.09102-115.5873231°66km/h14386m5.3m/s-52.7°C2.1%0hPa0V00:00:0000:00:0000:00:00
KE7DJD2026-09-03 23:50:5044.08877-115.5896445°55km/h14291m4.0m/s-52.4°C2.1%0hPa0V00:00:0000:00:0000:00:00
KE7DJD2026-09-03 23:50:3044.08682-115.5925147°57km/h14199m5.5m/s-52.2°C2.1%0hPa0V00:00:0000:00:0000:00:00
KE7DJD2026-09-03 23:50:1044.08522-115.5957068°57km/h14109m3.8m/s-51.6°C2.1%0hPa0V00:00:0000:00:0000:00:00
KE7DJD2026-09-03 23:49:4944.08375-115.5993667°64km/h14015m3.3m/s-51.3°C2.1%0hPa0V00:00:0000:00:0000:00:00
KE7DJD2026-09-03 23:49:2844.08245-115.6036072°66km/h13922m4.2m/s-51.1°C2.0%0hPa0V00:00:0000:00:0000:00:00
KE7DJD2026-09-03 23:49:0844.08123-115.6080671°71km/h13835m4.8m/s-50.8°C2.0%0hPa0V00:00:0000:00:0000:00:00
KE7DJD2026-09-03 23:48:4844.07994-115.6128765°68km/h13749m3.4m/s-50.9°C2.0%0hPa0V00:00:0000:00:0000:00:00
KE7DJD2026-09-03 23:48:2744.07843-115.6187670°102km/h13639m7.8m/s-50.4°C2.1%0hPa0V00:00:0000:00:0000:00:00
KE7DJD2026-09-03 23:48:0644.07673-115.6255266°119km/h13532m4.8m/s-50.1°C2.1%0hPa0V00:00:0000:00:0000:00:00
KE7DJD2026-09-03 23:47:4644.07474-115.6328671°119km/h13436m3.0m/s-50.1°C2.2%0hPa0V00:00:0000:00:0000:00:00
KE7DJD2026-09-03 23:47:2544.07217-115.6409269°117km/h13351m2.7m/s-49.7°C2.2%0hPa0V00:00:0000:00:0000:00:00
KE7DJD2026-09-03 23:47:0644.06914-115.6486461°126km/h13272m4.4m/s-49.8°C2.3%0hPa0V00:00:0000:00:0000:00:00
KE7DJD2026-09-03 23:46:4444.06590-115.6564567°122km/h13188m3.0m/s-50.5°C2.7%0hPa0V00:00:0000:00:0000:00:00
KE7DJD2026-09-03 23:46:2444.06260-115.6641956°128km/h13089m4.6m/s-50.5°C2.8%0hPa0V00:00:0000:00:0000:00:00
KE7DJD2026-09-03 23:46:0344.05867-115.6709046°124km/h13005m4.9m/s-50.3°C2.8%0hPa0V00:00:0000:00:0000:00:00
KE7DJD2026-09-03 23:45:4344.05435-115.6775147°124km/h12918m3.9m/s-50.6°C3.1%0hPa0V00:00:0000:00:0000:00:00
KE7DJD2026-09-03 23:45:0144.04423-115.6900935°120km/h12730m3.8m/s-52.4°C4.6%0hPa0V00:00:0000:00:0000:00:00
KE7DJD2026-09-03 23:44:4144.03919-115.6944933°113km/h12647m2.9m/s-51.6°C4.4%0hPa0V00:00:0000:00:0000:00:00
KE7DJD2026-09-03 23:44:2044.03403-115.6990134°120km/h12563m5.1m/s-51.3°C4.3%0hPa0V00:00:0000:00:0000:00:00
KE7DJD2026-09-03 23:44:0144.02936-115.7036935°119km/h12478m5.3m/s-51.3°C4.4%0hPa0V00:00:0000:00:0000:00:00
KE7DJD2026-09-03 23:43:4044.02464-115.7083436°108km/h12396m3.5m/s-51.3°C4.7%0hPa0V00:00:0000:00:0000:00:00
KE7DJD2026-09-03 23:43:2044.01979-115.7127636°108km/h12302m5.8m/s-50.5°C4.6%0hPa0V00:00:0000:00:0000:00:00
KE7DJD2026-09-03 23:43:0044.01539-115.7167037°115km/h12208m8.6m/s-49.8°C5.7%0hPa0V00:00:0000:00:0000:00:00
KE7DJD2026-09-03 23:42:3944.01131-115.7214338°120km/h12110m8.1m/s-50.0°C10.5%0hPa0V00:00:0000:00:0000:00:00
KE7DJD2026-09-03 23:42:1944.00738-115.7274950°137km/h11995m5.5m/s-52.7°C23.4%0hPa0V00:00:0000:00:0000:00:00
KE7DJD2026-09-03 23:41:5844.00262-115.7337241°130km/h11898m4.1m/s-53.0°C26.9%0hPa0V00:00:0000:00:0000:00:00
KE7DJD2026-09-03 23:41:3843.99798-115.7396949°128km/h11788m5.5m/s-52.5°C31.3%0hPa0V00:00:0000:00:0000:00:00
KE7DJD2026-09-03 23:41:1643.99334-115.7471252°139km/h11680m3.6m/s-52.8°C38.9%0hPa0V00:00:0000:00:0000:00:00
KE7DJD2026-09-03 23:40:5643.98861-115.7548849°146km/h11592m3.4m/s-53.0°C43.0%0hPa0V00:00:0000:00:0000:00:00
KE7DJD2026-09-03 23:40:3643.98349-115.7624346°146km/h11500m4.5m/s-52.9°C41.8%0hPa0V00:00:0000:00:0000:00:00
KE7DJD2026-09-03 23:40:1643.97814-115.7695440°141km/h11407m3.3m/s-52.1°C39.1%0hPa0V00:00:0000:00:0000:00:00
KE7DJD2026-09-03 23:39:5643.97253-115.7769043°157km/h11302m3.4m/s-51.0°C35.1%0hPa0V00:00:0000:00:0000:00:00
KE7DJD2026-09-03 23:39:3643.96723-115.7839247°139km/h11208m3.3m/s-50.2°C32.1%0hPa0V00:00:0000:00:0000:00:00
KE7DJD2026-09-03 23:39:1543.96182-115.7907946°139km/h11115m5.3m/s-49.9°C33.4%0hPa0V00:00:0000:00:0000:00:00
KE7DJD2026-09-03 23:38:5543.95645-115.7978045°148km/h11020m4.8m/s-50.0°C34.8%0hPa0V00:00:0000:00:0000:00:00
KE7DJD2026-09-03 23:38:3443.95073-115.8046042°142km/h10926m3.8m/s-49.2°C33.8%0hPa0V00:00:0000:00:0000:00:00
KE7DJD2026-09-03 23:38:1343.94504-115.8110737°141km/h10839m4.6m/s-48.4°C33.3%0hPa0V00:00:0000:00:0000:00:00
KE7DJD2026-09-03 23:37:5343.93979-115.8174043°133km/h10755m4.9m/s-48.1°C38.1%0hPa0V00:00:0000:00:0000:00:00
KE7DJD2026-09-03 23:37:3343.93471-115.8242349°142km/h10668m5.4m/s-47.4°C38.5%0hPa0V00:00:0000:00:0000:00:00
KE7DJD2026-09-03 23:37:1343.92977-115.8313846°141km/h10583m4.8m/s-46.5°C36.5%0hPa0V00:00:0000:00:0000:00:00
KE7DJD2026-09-03 23:36:5443.92477-115.8385344°141km/h10501m3.5m/s-45.8°C32.8%0hPa0V00:00:0000:00:0000:00:00
KE7DJD2026-09-03 23:36:3343.91963-115.8461050°146km/h10416m4.2m/s-45.2°C29.4%0hPa0V00:00:0000:00:0000:00:00
KE7DJD2026-09-03 23:36:1243.91462-115.8535550°135km/h10331m4.9m/s-44.5°C27.0%0hPa0V00:00:0000:00:0000:00:00
KE7DJD2026-09-03 23:35:5043.90962-115.8607747°131km/h10246m4.2m/s-43.8°C27.9%0hPa0V00:00:0000:00:0000:00:00
KE7DJD2026-09-03 23:35:3043.90479-115.8675846°137km/h10165m4.4m/s-43.4°C39.8%0hPa0V00:00:0000:00:0000:00:00
KE7DJD2026-09-03 23:35:1143.89985-115.8740642°139km/h10077m3.9m/s-42.6°C32.3%0hPa0V00:00:0000:00:0000:00:00
KE7DJD2026-09-03 23:34:5143.89487-115.8803942°135km/h9990m3.5m/s-41.8°C29.4%0hPa0V00:00:0000:00:0000:00:00
KE7DJD2026-09-03 23:34:3043.88997-115.8866743°130km/h9903m4.3m/s-41.1°C27.8%0hPa0V00:00:0000:00:0000:00:00
KE7DJD2026-09-03 23:34:1043.88479-115.8932844°126km/h9808m3.7m/s-40.3°C28.7%0hPa0V00:00:0000:00:0000:00:00
KE7DJD2026-09-03 23:33:4943.87978-115.8993842°130km/h9716m5.2m/s-39.7°C31.2%0hPa0V00:00:0000:00:0000:00:00
KE7DJD2026-09-03 23:33:3043.87475-115.9052941°131km/h9627m4.1m/s-38.9°C27.8%0hPa0V00:00:0000:00:0000:00:00
KE7DJD2026-09-03 23:33:0943.86971-115.9109439°135km/h9538m4.4m/s-38.1°C25.0%0hPa0V00:00:0000:00:0000:00:00
KE7DJD2026-09-03 23:32:4943.86448-115.9171041°126km/h9443m4.5m/s-37.1°C22.7%0hPa0V00:00:0000:00:0000:00:00
KE7DJD2026-09-03 23:32:2843.85934-115.9231740°120km/h9349m4.8m/s-36.4°C22.8%0hPa0V00:00:0000:00:0000:00:00
KE7DJD2026-09-03 23:32:0843.85447-115.9289543°124km/h9259m4.4m/s-35.6°C24.8%0hPa0V00:00:0000:00:0000:00:00
KE7DJD2026-09-03 23:31:4743.84935-115.9352444°130km/h9161m4.1m/s-34.8°C25.6%0hPa0V00:00:0000:00:0000:00:00
KE7DJD2026-09-03 23:31:2643.84461-115.9415042°131km/h9071m6.1m/s-34.1°C26.0%0hPa0V00:00:0000:00:0000:00:00
KE7DJD2026-09-03 23:31:0643.83953-115.9479443°130km/h8976m5.4m/s-33.2°C24.1%0hPa0V00:00:0000:00:0000:00:00
KE7DJD2026-09-03 23:30:4543.83448-115.9544547°130km/h8878m4.4m/s-32.3°C21.9%0hPa0V00:00:0000:00:0000:00:00
KE7DJD2026-09-03 23:30:2443.82957-115.9606143°141km/h8788m4.4m/s-31.5°C19.5%0hPa0V00:00:0000:00:0000:00:00
KE7DJD2026-09-03 23:30:0443.82466-115.9665843°135km/h8699m5.7m/s-30.8°C18.4%0hPa0V00:00:0000:00:0000:00:00
KE7DJD2026-09-03 23:29:4543.81976-115.9725144°120km/h8614m4.5m/s-30.4°C20.8%0hPa0V00:00:0000:00:0000:00:00
KE7DJD2026-09-03 23:29:2543.81497-115.9785142°124km/h8527m3.6m/s-29.9°C21.0%0hPa0V00:00:0000:00:0000:00:00
KE7DJD2026-09-03 23:29:0343.81002-115.9846241°119km/h8434m3.2m/s-29.0°C19.5%0hPa0V00:00:0000:00:0000:00:00
KE7DJD2026-09-03 23:28:4343.80499-115.9903942°128km/h8343m4.5m/s-28.2°C18.0%0hPa0V00:00:0000:00:0000:00:00
KE7DJD2026-09-03 23:28:2243.79999-115.9962043°124km/h8253m2.7m/s-27.9°C24.2%0hPa0V00:00:0000:00:0000:00:00
KE7DJD2026-09-03 23:28:0243.79527-116.0015742°124km/h8171m5.3m/s-27.2°C23.0%0hPa0V00:00:0000:00:0000:00:00
KE7DJD2026-09-03 23:27:4243.79062-116.0070744°117km/h8092m3.3m/s-26.4°C21.0%0hPa0V00:00:0000:00:0000:00:00
KE7DJD2026-09-03 23:27:2143.78575-116.0127941°131km/h8006m3.5m/s-25.6°C20.6%0hPa0V00:00:0000:00:0000:00:00
KE7DJD2026-09-03 23:27:0043.78103-116.0183945°120km/h7925m4.8m/s-25.0°C16.2%0hPa0V00:00:0000:00:0000:00:00
KE7DJD2026-09-03 23:26:3943.77617-116.0241539°122km/h7840m3.5m/s-24.5°C5.6%0hPa0V00:00:0000:00:0000:00:00
KE7DJD2026-09-03 23:26:1943.77112-116.0301341°128km/h7752m4.4m/s-24.4°C7.3%0hPa0V00:00:0000:00:0000:00:00
KE7DJD2026-09-03 23:25:5943.76661-116.0356841°119km/h7671m4.7m/s-24.7°C51.3%0hPa0V00:00:0000:00:0000:00:00
KE7DJD2026-09-03 23:25:3843.76151-116.0413636°120km/h7579m6.1m/s-24.1°C63.6%0hPa0V00:00:0000:00:0000:00:00
KE7DJD2026-09-03 23:25:1743.75678-116.0465640°115km/h7489m4.7m/s-23.3°C65.4%0hPa0V00:00:0000:00:0000:00:00
KE7DJD2026-09-03 23:24:5743.75204-116.0516440°117km/h7405m4.0m/s-22.6°C62.8%0hPa0V00:00:0000:00:0000:00:00
KE7DJD2026-09-03 23:24:3643.74717-116.0572843°111km/h7317m4.4m/s-22.1°C61.3%0hPa0V00:00:0000:00:0000:00:00
KE7DJD2026-09-03 23:24:1643.74276-116.0626438°111km/h7235m2.7m/s-21.5°C56.0%0hPa0V00:00:0000:00:0000:00:00
KE7DJD2026-09-03 23:23:5643.73820-116.0682040°113km/h7145m4.8m/s-21.0°C51.0%0hPa0V00:00:0000:00:0000:00:00
KE7DJD2026-09-03 23:23:3443.73376-116.0734547°102km/h7057m3.6m/s-20.4°C49.1%0hPa0V00:00:0000:00:0000:00:00
KE7DJD2026-09-03 23:23:1443.72957-116.0783937°104km/h6975m3.5m/s-20.2°C67.2%0hPa0V00:00:0000:00:0000:00:00
KE7DJD2026-09-03 23:22:3443.72101-116.0880039°111km/h6806m4.0m/s-19.2°C75.1%0hPa0V00:00:0000:00:0000:00:00
KE7DJD2026-09-03 23:22:1343.71643-116.0929538°102km/h6719m4.1m/s-18.7°C78.4%0hPa0V00:00:0000:00:0000:00:00
KE7DJD2026-09-03 23:21:5343.71206-116.0977539°108km/h6639m4.8m/s-18.0°C73.9%0hPa0V00:00:0000:00:0000:00:00
KE7DJD2026-09-03 23:21:3243.70760-116.1029643°111km/h6556m4.5m/s-17.6°C76.4%0hPa0V00:00:0000:00:0000:00:00
KE7DJD2026-09-03 23:21:1243.70355-116.1085648°113km/h6473m4.6m/s-17.3°C78.4%0hPa0V00:00:0000:00:0000:00:00
KE7DJD2026-09-03 23:20:5243.69963-116.1136850°102km/h6396m4.8m/s-17.0°C79.2%0hPa0V00:00:0000:00:0000:00:00
KE7DJD2026-09-03 23:20:3243.69599-116.1189245°102km/h6322m3.3m/s-16.6°C82.8%0hPa0V00:00:0000:00:0000:00:00
KE7DJD2026-09-03 23:20:1143.69208-116.1245750°108km/h6246m4.0m/s-16.3°C84.6%0hPa0V00:00:0000:00:0000:00:00
KE7DJD2026-09-03 23:19:4943.68801-116.1301349°111km/h6172m3.3m/s-16.4°C92.6%0hPa0V00:00:0000:00:0000:00:00
KE7DJD2026-09-03 23:19:2943.68404-116.1355748°115km/h6091m6.7m/s-16.8°C98.5%0hPa0V00:00:0000:00:0000:00:00
KE7DJD2026-09-03 23:19:0843.68016-116.1406248°111km/h5994m3.5m/s-16.3°C99.7%0hPa0V00:00:0000:00:0000:00:00
KE7DJD2026-09-03 23:18:4843.67649-116.1456648°97km/h5889m6.9m/s-15.6°C98.0%0hPa0V00:00:0000:00:0000:00:00
KE7DJD2026-09-03 23:18:2743.67289-116.1496433°89km/h5796m4.6m/s-14.9°C93.9%0hPa0V00:00:0000:00:0000:00:00
KE7DJD2026-09-03 23:18:0643.66948-116.1545149°95km/h5690m5.1m/s-14.2°C90.1%0hPa0V00:00:0000:00:0000:00:00
KE7DJD2026-09-03 23:17:4643.66651-116.1591041°82km/h5576m3.5m/s-13.7°C92.9%0hPa0V00:00:0000:00:0000:00:00
KE7DJD2026-09-03 23:17:2743.66350-116.1636048°91km/h5487m4.1m/s-13.7°C96.3%0hPa0V00:00:0000:00:0000:00:00
KE7DJD2026-09-03 23:17:0643.66035-116.1673035°88km/h5378m6.1m/s-13.2°C99.3%0hPa0V00:00:0000:00:0000:00:00
KE7DJD2026-09-03 23:16:4643.65751-116.1706448°78km/h5259m4.7m/s-12.4°C99.5%0hPa0V00:00:0000:00:0000:00:00
KE7DJD2026-09-03 23:16:2543.65431-116.1739843°73km/h5157m6.7m/s-11.7°C96.0%0hPa0V00:00:0000:00:0000:00:00
KE7DJD2026-09-03 23:16:0543.65148-116.1772146°62km/h5052m3.8m/s-10.7°C90.5%0hPa0V00:00:0000:00:0000:00:00
KE7DJD2026-09-03 23:15:2243.64511-116.1838424°73km/h4844m4.7m/s-8.7°C80.4%0hPa0V00:00:0000:00:0000:00:00
KE7DJD2026-09-03 23:15:0143.64166-116.1867330°68km/h4738m6.6m/s-7.8°C77.0%0hPa0V00:00:0000:00:0000:00:00
KE7DJD2026-09-03 23:14:4043.63805-116.1894720°86km/h4634m5.6m/s-7.0°C73.9%0hPa0V00:00:0000:00:0000:00:00
KE7DJD2026-09-03 23:14:1943.63433-116.1925220°77km/h4503m7.0m/s-7.5°C99.6%0hPa0V00:00:0000:00:0000:00:00
KE7DJD2026-09-03 23:14:0043.63145-116.1944316°62km/h4398m5.8m/s-6.9°C99.7%0hPa0V00:00:0000:00:0000:00:00
KE7DJD2026-09-03 23:13:3843.62808-116.1962424°77km/h4273m5.2m/s-5.9°C94.2%0hPa0V00:00:0000:00:0000:00:00
KE7DJD2026-09-03 23:13:1743.62518-116.1979418°44km/h4140m6.4m/s-5.2°C99.1%0hPa0V00:00:0000:00:0000:00:00
KE7DJD2026-09-03 23:12:5743.62251-116.1991262km/h4019m5.3m/s-4.3°C99.8%0hPa0V00:00:0000:00:0000:00:00
KE7DJD2026-09-03 23:12:3743.61927-116.2006220°47km/h3901m5.8m/s-3.6°C99.8%0hPa0V00:00:0000:00:0000:00:00
KE7DJD2026-09-03 23:12:1543.61633-116.20157360°57km/h3784m5.9m/s-2.7°C95.3%0hPa0V00:00:0000:00:0000:00:00
KE7DJD2026-09-03 23:11:5443.61335-116.2023953km/h3659m5.1m/s-1.7°C91.2%0hPa0V00:00:0000:00:0000:00:00
KE7DJD2026-09-03 23:11:3343.61025-116.2034724°62km/h3547m4.9m/s-0.9°C86.8%0hPa0V00:00:0000:00:0000:00:00
KE7DJD2026-09-03 23:11:1343.60711-116.2041810°51km/h3440m5.0m/s-0.2°C89.5%0hPa0V00:00:0000:00:0000:00:00
KE7DJD2026-09-03 23:10:5243.60383-116.2051513°49km/h3325m6.4m/s0.7°C88.2%0hPa0V00:00:0000:00:0000:00:00
KE7DJD2026-09-03 23:10:3243.60069-116.2061958km/h3213m7.0m/s1.5°C87.6%0hPa0V00:00:0000:00:0000:00:00
KE7DJD2026-09-03 23:10:1143.59756-116.2075657km/h3091m4.5m/s2.6°C83.3%0hPa0V00:00:0000:00:0000:00:00
KE7DJD2026-09-03 23:09:5043.59451-116.2086060km/h2977m4.6m/s3.6°C78.5%0hPa0V00:00:0000:00:0000:00:00
KE7DJD2026-09-03 23:09:2943.59126-116.2096958km/h2843m6.8m/s4.6°C75.4%0hPa0V00:00:0000:00:0000:00:00
KE7DJD2026-09-03 23:09:0943.58877-116.2104927°37km/h2706m6.5m/s5.8°C70.7%0hPa0V00:00:0000:00:0000:00:00
KE7DJD2026-09-03 23:08:4843.58694-116.2110925°31km/h2582m5.1m/s6.6°C68.9%0hPa0V00:00:0000:00:0000:00:00
KE7DJD2026-09-03 23:08:2743.58503-116.21111346°27km/h2450m5.2m/s7.9°C64.1%0hPa0V00:00:0000:00:0000:00:00
KE7DJD2026-09-03 23:08:0743.58322-116.21095356°20km/h2339m5.9m/s8.9°C60.9%0hPa0V00:00:0000:00:0000:00:00
KE7DJD2026-09-03 23:07:4643.58145-116.21053359°46km/h2217m4.8m/s9.9°C58.1%0hPa0V00:00:0000:00:0000:00:00
KE7DJD2026-09-03 23:07:2643.57980-116.21037343°44km/h2114m5.2m/s10.8°C55.4%0hPa0V00:00:0000:00:0000:00:00
KE7DJD2026-09-03 23:07:0543.57842-116.2103722km/h2011m5.2m/s11.9°C52.4%0hPa0V00:00:0000:00:0000:00:00
KE7DJD2026-09-03 23:06:4543.57695-116.2104036°27km/h1902m4.4m/s12.9°C49.4%0hPa0V00:00:0000:00:0000:00:00
KE7DJD2026-09-03 23:06:2543.57538-116.2107230°31km/h1798m5.6m/s13.8°C48.9%0hPa0V00:00:0000:00:0000:00:00
KE7DJD2026-09-03 23:06:0443.57456-116.21178201°4km/h1644m8.9m/s15.2°C45.2%0hPa0V00:00:0000:00:0000:00:00
KE7DJD2026-09-03 23:05:4343.57390-116.2121040°15km/h1495m7.9m/s16.6°C0%0hPa0V00:00:0000:00:0000:00:00
KE7DJD2026-09-03 23:05:2343.57298-116.2122730°31km/h1366m6.2m/s0°C0%0hPa0V00:00:0000:00:0000:00:00
KE7DJD2026-09-03 23:05:0243.57184-116.21245321°22km/h1237m6.8m/s0°C0%0hPa0V00:00:0000:00:0000:00:00


GPX KML Map

© wettersonde.net (DO2JMG) - 2026  -  -